NY Terminal Aviation Weather Discussion (AFD) - Prepared: 1008 PM EDT MON MAY 25 2015
HIGH PRES REMAINS EAST OF THE AREA FOR THE NEXT SEVERAL DAYS.

VFR THROUGH THE TAF PERIOD.

WIND SOUTH TO SOUTHWEST INCREASES TUESDAY MORNING TO 10 TO 15 KT AND 
BY AFTERNOON WIND MAY BE 15 TO 20 KT SUSTAINED WITH GUSTS 20 TO 25 
KT.


5 Day General Aviation Outlook:

.OUTLOOK FOR 00Z WEDNESDAY THROUGH SATURDAY...
.TUESDAY NIGHT...SOUTHERLY WIND GUSTS 20-25KT END EARLY IN THE 
EVENING. THERE IS A LOW CHANCE OF SOME MVFR STRATUS ALONG THE 
IMMEDIATE COAST OF LONG ISLAND.

.WEDNESDAY...LOW CHANCE OF EARLY MORNING MVFR  STRATUS. LOW CHANCE 
OF AFTERNOON AND EARLY EVENING SHRA/TSTM...MAINLY NORTH AND WEST OF 
THE NYC METRO TERMINALS. SOUTHERLY WIND GUSTS UP TO 25 KT.

.THURSDAY-SATURDAY...THIS IS A CHANCE OF LATE NIGHT AND EARLY 
MORNING MVFR OR LOWER STRATUS AND/OR FOG. THERE IS A LOW CHANCE OF 
AFTERNOON AND EVENING SHRA/TSTM. WIND GUSTS 20-25 KT.


*************************************************************************************
KJFK Terminal Weather:

FTNA35 KJFK 260224
KJFK 260217Z 2602/2706 19016G22KT P6SM SCT250
     FM260500 21012KT P6SM FEW250
     FM261600 19014KT P6SM SCT250
     FM262000 18020G26KT P6SM SCT250
     FM270300 20012KT P6SM FEW250
KJFK Forecaster Comments Not Available at This Time
*************************************************************************************
KLGA Terminal Weather:
FTUS80 KLGA 260218 AAA
KLGA 260217Z 2602/2624 20009KT P6SM FEW250
     FM261800 19016G22KT P6SM SCT250
KLGA Forecaster Comments Not Available at This Time
*************************************************************************************
KEWR Terminal Weather:
FTUS31 KEWR 260218 AAA
KEWR 260217Z 2602/2706 21010KT P6SM FEW250
     FM261600 19013G22KT P6SM SCT250
     FM262000 21014G23KT P6SM SCT250
     FM270000 21010KT P6SM FEW250
KEWR Forecaster Comments Not Available at This Time
*************************************************************************************
KTEB Terminal Weather:
FTUS80 KTEB 260218 AAA
KTEB 260217Z 2602/2624 21008KT P6SM FEW250
     FM261600 21011KT P6SM SCT250
     FM261900 19013G20KT P6SM SCT250
KTEB Forecaster Comments Not Available at This Time
*************************************************************************************
KHPN Terminal Weather:
FTUS41 KHPN 252321
KHPN 252320Z 2600/2624 18009G16KT P6SM FEW070 SCT250
     FM260100 21005KT P6SM FEW250
     FM261600 17010KT P6SM SCT250
     FM261900 17011G18KT P6SM SCT250 AMD NOT SKED
KHPN Forecaster Comments Not Available at This Time
*************************************************************************************
KISP Terminal Weather:
FTUS80 KISP 260218 AAA
KISP 260217Z 2602/2624 22017G24KT P6SM BKN250
     FM260400 22009KT P6SM FEW250
     FM261600 18011KT P6SM SCT250
     FM261900 19015G21KT P6SM SCT250
KISP Forecaster Comments Not Available at This Time

*************************************************************************************
5 Day General Outlook:

.OUTLOOK FOR 00Z WEDNESDAY THROUGH SATURDAY...
.TUESDAY NIGHT...SOUTHERLY WIND GUSTS 20-25KT END EARLY IN THE 
EVENING. THERE IS A LOW CHANCE OF SOME MVFR STRATUS ALONG THE 
IMMEDIATE COAST OF LONG ISLAND.

.WEDNESDAY...LOW CHANCE OF EARLY MORNING MVFR  STRATUS. LOW CHANCE 
OF AFTERNOON AND EARLY EVENING SHRA/TSTM...MAINLY NORTH AND WEST OF 
THE NYC METRO TERMINALS. SOUTHERLY WIND GUSTS UP TO 25 KT.

.THURSDAY-SATURDAY...THIS IS A CHANCE OF LATE NIGHT AND EARLY 
MORNING MVFR OR LOWER STRATUS AND/OR FOG. THERE IS A LOW CHANCE OF 
AFTERNOON AND EVENING SHRA/TSTM. WIND GUSTS 20-25 KT.


Click the Print Icon print icon below to print the briefing sheet